Time;durP1;ratioP1;P1;durP2;ratioP2;P2;SDS_P1;SDS_P2;PMS_P1;PMS_P2;Temp;Humidity;BMP_temperature;BMP_pressure;BME280_temperature;BME280_humidity;BME280_pressure;Samples;Min_cycle;Max_cycle;Signal;HPM_P1;HPM_P2
2023/02/23 00:01:27;;;;;;;46.30;22.38;;;8.10;99.90;;;;;;5005871;28;20041;-72
2023/02/23 00:03:56;;;;;;;43.28;23.60;;;8.10;99.90;;;;;;5020810;28;20370;-72
2023/02/23 00:06:23;;;;;;;45.90;21.98;;;8.10;99.90;;;;;;5024372;28;20075;-72
2023/02/23 00:08:51;;;;;;;42.65;22.40;;;8.10;99.90;;;;;;5016389;28;20050;-72
2023/02/23 00:11:16;;;;;;;44.90;22.38;;;8.10;99.90;;;;;;4999630;28;20107;-72
2023/02/23 00:13:45;;;;;;;44.78;24.10;;;8.00;99.90;;;;;;5036904;28;20401;-72
2023/02/23 00:16:15;;;;;;;42.63;21.13;;;8.00;99.90;;;;;;5021591;28;20048;-72
2023/02/23 00:18:49;;;;;;;44.97;23.13;;;8.00;99.90;;;;;;5024120;28;20080;-72
2023/02/23 00:21:17;;;;;;;43.90;22.08;;;7.90;99.90;;;;;;5019483;28;20054;-72
2023/02/23 00:23:50;;;;;;;46.42;23.33;;;7.90;99.90;;;;;;5008590;28;20098;-72
2023/02/23 00:26:19;;;;;;;45.85;23.42;;;7.90;99.90;;;;;;5022045;28;20088;-72
2023/02/23 00:28:45;;;;;;;51.05;24.25;;;7.90;99.90;;;;;;4999838;28;20077;-72
2023/02/23 00:31:11;;;;;;;41.97;21.30;;;7.90;99.90;;;;;;5018805;28;20054;-72
2023/02/23 00:33:38;;;;;;;48.10;23.77;;;7.90;99.90;;;;;;5024831;28;20399;-72
2023/02/23 00:36:08;;;;;;;43.33;22.85;;;7.90;99.90;;;;;;5009332;28;20041;-72
2023/02/23 00:38:35;;;;;;;47.70;24.65;;;7.90;99.90;;;;;;5009471;28;20136;-72
2023/02/23 00:41:05;;;;;;;47.20;23.27;;;7.80;99.90;;;;;;4996398;28;20422;-72
2023/02/23 00:43:46;;;;;;;43.65;23.02;;;7.80;99.90;;;;;;5009109;28;20045;-72
2023/02/23 00:46:15;;;;;;;41.10;22.58;;;7.80;99.90;;;;;;4996203;28;20053;-72
2023/02/23 00:48:41;;;;;;;45.25;24.08;;;7.80;99.90;;;;;;5043036;28;20477;-72
2023/02/23 00:51:06;;;;;;;42.40;22.52;;;7.80;99.90;;;;;;4987377;28;20576;-72
2023/02/23 00:53:32;;;;;;;45.40;23.98;;;7.70;99.90;;;;;;5011707;28;20434;-72
2023/02/23 00:55:58;;;;;;;45.97;22.92;;;7.70;99.90;;;;;;5024577;28;20518;-72
2023/02/23 00:58:24;;;;;;;41.92;23.08;;;7.70;99.90;;;;;;5030137;28;20115;-72
2023/02/23 01:00:50;;;;;;;46.42;23.45;;;7.70;99.90;;;;;;5032773;28;20470;-72
2023/02/23 01:03:16;;;;;;;52.17;23.42;;;7.60;99.90;;;;;;5025084;28;20053;-72
2023/02/23 01:05:42;;;;;;;50.53;23.27;;;7.60;99.90;;;;;;5025363;28;20393;-72
2023/02/23 01:08:11;;;;;;;42.40;23.40;;;7.60;99.90;;;;;;5017125;28;20050;-72
2023/02/23 01:10:41;;;;;;;46.42;23.15;;;7.60;99.90;;;;;;5002421;28;20060;-72
2023/02/23 01:13:09;;;;;;;51.00;24.75;;;7.60;99.90;;;;;;5028463;28;20110;-72
2023/02/23 01:15:40;;;;;;;46.00;23.38;;;7.60;99.90;;;;;;5036612;28;20053;-72
2023/02/23 01:18:06;;;;;;;43.15;21.48;;;7.50;99.90;;;;;;5012297;28;20052;-72
2023/02/23 01:20:34;;;;;;;47.28;24.42;;;7.60;99.90;;;;;;5008234;28;20372;-72
2023/02/23 01:23:01;;;;;;;45.80;23.05;;;7.60;99.90;;;;;;5010473;28;20504;-72
2023/02/23 01:25:27;;;;;;;46.15;23.10;;;7.50;99.90;;;;;;5036086;28;20695;-72
2023/02/23 01:27:54;;;;;;;47.00;23.00;;;7.50;99.90;;;;;;5030557;28;20049;-72
2023/02/23 01:30:20;;;;;;;45.80;22.20;;;7.60;99.90;;;;;;5006381;28;20505;-72
2023/02/23 01:32:45;;;;;;;45.20;23.42;;;7.50;99.90;;;;;;5011286;28;20046;-72
2023/02/23 01:35:11;;;;;;;44.88;24.08;;;7.50;99.90;;;;;;4988354;28;20443;-72
2023/02/23 01:37:39;;;;;;;47.88;22.42;;;7.50;99.90;;;;;;5018589;28;20117;-72
2023/02/23 01:40:12;;;;;;;43.35;22.27;;;7.40;99.90;;;;;;5029376;28;20041;-72
2023/02/23 01:42:38;;;;;;;44.45;24.27;;;7.40;99.90;;;;;;5022319;28;20057;-72
2023/02/23 01:45:24;;;;;;;44.35;23.50;;;7.40;99.90;;;;;;5014328;28;20064;-72
2023/02/23 01:47:52;;;;;;;49.70;24.33;;;7.50;99.90;;;;;;5030171;28;20056;-72
2023/02/23 01:50:18;;;;;;;50.22;24.25;;;7.40;99.90;;;;;;5025225;28;20132;-72
2023/02/23 01:52:45;;;;;;;45.83;22.70;;;7.50;99.90;;;;;;5011344;28;20268;-72
2023/02/23 01:55:11;;;;;;;46.95;21.85;;;7.40;99.90;;;;;;5020653;28;20056;-72
2023/02/23 01:57:38;;;;;;;42.15;22.23;;;7.40;99.90;;;;;;5017187;28;20481;-72
2023/02/23 02:00:12;;;;;;;43.88;22.30;;;7.50;99.90;;;;;;4987868;28;20037;-72
2023/02/23 02:02:38;;;;;;;43.25;22.65;;;7.40;99.90;;;;;;5008263;28;20126;-72
2023/02/23 02:05:11;;;;;;;51.58;23.92;;;7.30;99.90;;;;;;5007768;28;20041;-72
2023/02/23 02:07:38;;;;;;;44.78;22.38;;;7.30;99.90;;;;;;5022073;28;20126;-72
2023/02/23 02:12:40;;;;;;;42.60;22.33;;;7.20;99.90;;;;;;5016700;28;20060;-72
2023/02/23 02:15:07;;;;;;;45.40;22.52;;;7.30;99.90;;;;;;4997501;28;20473;-72
2023/02/23 02:17:57;;;;;;;47.40;22.30;;;7.30;99.90;;;;;;5007002;28;20474;-72
2023/02/23 02:21:17;;;;;;;50.83;24.05;;;7.30;99.90;;;;;;5034176;28;20079;-72
2023/02/23 02:23:50;;;;;;;50.38;23.80;;;7.30;99.90;;;;;;5039607;28;20048;-72
2023/02/23 02:26:31;;;;;;;41.38;22.15;;;7.30;99.90;;;;;;5025726;28;20053;-72
2023/02/23 02:29:19;;;;;;;45.65;22.95;;;7.20;99.90;;;;;;5017375;28;20049;-72
2023/02/23 02:31:55;;;;;;;47.30;23.30;;;7.20;99.90;;;;;;5006197;28;20053;-72
2023/02/23 02:34:44;;;;;;;46.60;22.88;;;7.20;99.90;;;;;;5002540;28;20049;-72
2023/02/23 02:37:27;;;;;;;43.08;22.45;;;7.20;99.90;;;;;;5004250;28;20038;-72
2023/02/23 02:40:20;;;;;;;50.58;24.45;;;7.20;99.90;;;;;;4993989;28;20049;-72
2023/02/23 02:42:48;;;;;;;48.70;23.77;;;7.10;99.90;;;;;;5034286;28;20037;-72
2023/02/23 02:45:25;;;;;;;49.30;24.80;;;7.20;99.90;;;;;;5011034;28;20060;-72
2023/02/23 02:48:05;;;;;;;43.00;21.60;;;7.10;99.90;;;;;;5012254;28;20459;-72
2023/02/23 02:51:00;;;;;;;49.97;22.48;;;7.00;99.90;;;;;;5006354;28;20068;-72
2023/02/23 02:53:44;;;;;;;44.50;22.13;;;7.00;99.90;;;;;;5024634;28;20045;-72
2023/02/23 02:56:11;;;;;;;46.58;23.42;;;6.90;99.90;;;;;;5016761;28;20037;-72
2023/02/23 02:58:37;;;;;;;46.67;22.48;;;6.90;99.90;;;;;;5017406;28;20099;-71
2023/02/23 04:18:33;;;;;;;57.05;27.27;;;6.80;99.90;;;;;;4994713;28;20080;-70
2023/02/23 04:20:59;;;;;;;44.95;23.83;;;6.80;99.90;;;;;;5028694;28;20447;-70
2023/02/23 04:23:25;;;;;;;46.78;24.40;;;6.80;99.90;;;;;;5021458;28;20124;-71
2023/02/23 04:25:51;;;;;;;47.70;26.40;;;6.80;99.90;;;;;;5021805;28;20132;-70
2023/02/23 04:28:17;;;;;;;50.20;26.27;;;6.90;99.90;;;;;;5010315;28;20140;-71
2023/02/23 04:30:43;;;;;;;53.90;27.55;;;6.80;99.90;;;;;;5031081;28;20038;-70
2023/02/23 04:33:09;;;;;;;44.70;25.50;;;6.80;99.90;;;;;;5010246;28;20053;-70
2023/02/23 04:35:35;;;;;;;45.22;25.02;;;6.90;99.90;;;;;;5014543;28;20390;-72
2023/02/23 04:38:00;;;;;;;48.80;23.83;;;6.90;99.90;;;;;;5009912;28;20466;-72
2023/02/23 04:40:26;;;;;;;49.63;24.63;;;6.70;99.90;;;;;;5022629;28;20815;-72
2023/02/23 04:42:52;;;;;;;52.60;26.80;;;6.60;99.90;;;;;;5023644;28;20153;-72
2023/02/23 04:45:18;;;;;;;54.63;25.98;;;6.60;99.90;;;;;;4983003;28;20576;-72
2023/02/23 04:47:44;;;;;;;51.53;25.70;;;6.70;99.90;;;;;;5002282;28;20046;-72
2023/02/23 04:50:10;;;;;;;52.30;26.30;;;6.70;99.90;;;;;;5015285;28;20046;-72
2023/02/23 04:52:37;;;;;;;51.88;26.00;;;6.80;99.90;;;;;;5000852;28;20083;-72
2023/02/23 04:55:05;;;;;;;48.78;26.15;;;6.80;99.90;;;;;;5014772;28;20460;-72
2023/02/23 04:57:32;;;;;;;50.30;26.38;;;6.80;99.90;;;;;;5012368;28;20406;-72
2023/02/23 04:59:58;;;;;;;49.13;25.95;;;6.80;99.90;;;;;;5015021;28;20042;-72
2023/02/23 05:02:23;;;;;;;54.03;28.63;;;6.80;99.90;;;;;;4999031;28;20490;-72
2023/02/23 05:04:50;;;;;;;54.90;29.17;;;6.80;99.90;;;;;;5005844;28;20429;-72
2023/02/23 05:07:15;;;;;;;59.55;31.95;;;6.90;99.90;;;;;;5020687;28;20061;-72
2023/02/23 05:09:41;;;;;;;53.92;28.92;;;7.00;99.90;;;;;;5029755;28;20045;-72
2023/02/23 05:12:07;;;;;;;52.65;30.85;;;6.90;99.90;;;;;;5000985;28;20050;-72
2023/02/23 05:14:33;;;;;;;47.53;26.52;;;7.00;99.90;;;;;;5025173;28;20053;-72
2023/02/23 05:16:58;;;;;;;55.60;30.48;;;7.00;99.90;;;;;;5025918;28;20068;-72
2023/02/23 05:19:24;;;;;;;45.40;27.75;;;7.00;99.90;;;;;;5020281;28;20095;-71
2023/02/23 05:21:50;;;;;;;48.30;28.05;;;7.00;99.90;;;;;;5024425;28;20049;-72
2023/02/23 05:24:16;;;;;;;50.20;27.52;;;7.00;99.90;;;;;;5001956;28;20423;-72
2023/02/23 05:26:43;;;;;;;48.60;26.27;;;6.90;99.90;;;;;;5016843;28;20041;-71
2023/02/23 05:29:10;;;;;;;46.38;23.75;;;6.60;99.90;;;;;;5014288;28;20060;-71
2023/02/23 05:31:35;;;;;;;47.42;26.30;;;6.60;99.90;;;;;;5030996;28;20457;-71
2023/02/23 05:34:01;;;;;;;47.85;26.33;;;6.50;99.90;;;;;;5019475;28;20073;-71
2023/02/23 05:36:27;;;;;;;47.83;25.15;;;6.50;99.90;;;;;;5029691;28;20045;-72
2023/02/23 05:38:53;;;;;;;52.85;25.98;;;6.50;99.90;;;;;;5032249;28;20042;-72
2023/02/23 05:41:20;;;;;;;49.17;28.02;;;6.50;99.90;;;;;;5011122;28;20057;-71
2023/02/23 05:43:46;;;;;;;55.35;31.38;;;6.70;99.90;;;;;;5026896;28;20129;-71
2023/02/23 05:46:14;;;;;;;51.45;29.10;;;6.80;99.90;;;;;;5026734;28;20052;-71
2023/02/23 05:48:40;;;;;;;;;;;6.80;99.90;;;;;;5005632;28;20056;-71
2023/02/23 05:51:07;;;;;;;58.95;32.33;;;6.80;99.90;;;;;;5056687;28;20490;-71
2023/02/23 05:53:33;;;;;;;50.80;29.37;;;6.80;99.90;;;;;;5022411;28;20060;-71
2023/02/23 05:56:00;;;;;;;48.83;25.83;;;6.80;99.90;;;;;;4997662;28;20057;-71
2023/02/23 05:58:26;;;;;;;54.95;30.05;;;6.60;99.90;;;;;;4991457;28;20117;-71
2023/02/23 06:00:52;;;;;;;38.95;23.00;;;6.60;99.90;;;;;;5018929;28;20221;-71
2023/02/23 06:03:18;;;;;;;42.65;22.58;;;6.60;99.90;;;;;;5044232;28;20048;-71
2023/02/23 06:05:51;;;;;;;47.58;25.08;;;6.50;99.90;;;;;;5007831;28;20482;-72
2023/02/23 06:08:17;;;;;;;49.42;26.60;;;6.60;99.90;;;;;;4987074;28;20057;-71
2023/02/23 06:10:43;;;;;;;52.22;29.00;;;6.60;99.90;;;;;;4994486;28;20190;-71
2023/02/23 06:13:09;;;;;;;50.00;27.60;;;6.70;99.90;;;;;;5024298;28;20053;-72
2023/02/23 06:15:36;;;;;;;46.95;26.02;;;6.70;99.90;;;;;;5023714;28;20459;-73
2023/02/23 06:18:02;;;;;;;55.42;28.77;;;6.60;99.90;;;;;;5030122;28;20470;-73
2023/02/23 06:20:28;;;;;;;50.75;27.05;;;6.50;99.90;;;;;;5028050;28;20045;-73
2023/02/23 06:22:53;;;;;;;55.67;29.85;;;6.50;99.90;;;;;;5002505;28;20041;-73
2023/02/23 06:25:19;;;;;;;56.55;30.38;;;6.60;99.90;;;;;;5006435;28;20049;-73
2023/02/23 06:27:45;;;;;;;56.20;31.13;;;6.60;99.90;;;;;;5013207;28;20175;-73
2023/02/23 06:30:11;;;;;;;66.60;35.67;;;6.70;99.90;;;;;;5007033;28;20120;-73
2023/02/23 06:32:37;;;;;;;60.83;32.67;;;6.70;99.90;;;;;;5006321;28;20060;-73
2023/02/23 06:35:04;;;;;;;67.50;38.10;;;6.70;99.90;;;;;;4993540;28;20066;-73
2023/02/23 06:37:31;;;;;;;59.25;33.58;;;6.70;99.90;;;;;;5029670;28;20045;-73
2023/02/23 06:39:57;;;;;;;62.25;33.95;;;6.70;99.90;;;;;;5016952;28;20469;-73
2023/02/23 06:42:23;;;;;;;60.35;34.33;;;6.80;99.90;;;;;;5024312;28;20373;-73
2023/02/23 06:44:48;;;;;;;63.95;33.65;;;6.80;99.90;;;;;;5023284;28;20108;-73
2023/02/23 06:47:14;;;;;;;59.03;33.90;;;6.80;99.90;;;;;;5022058;28;20375;-73
2023/02/23 06:49:40;;;;;;;67.50;38.47;;;6.80;99.90;;;;;;5029275;28;20056;-73
2023/02/23 06:52:07;;;;;;;66.85;38.47;;;6.90;99.90;;;;;;5022774;28;20087;-73
2023/02/23 06:54:36;;;;;;;69.63;40.63;;;6.90;99.90;;;;;;5023173;28;20064;-73
2023/02/23 06:57:02;;;;;;;67.22;39.03;;;7.00;99.90;;;;;;5002079;28;20053;-73
2023/02/23 06:59:29;;;;;;;64.57;37.25;;;7.10;99.90;;;;;;4988798;28;20052;-73
2023/02/23 07:01:55;;;;;;;64.28;34.63;;;7.10;99.90;;;;;;5021846;28;20041;-73
2023/02/23 07:04:21;;;;;;;57.10;32.75;;;7.10;99.90;;;;;;5008247;28;20045;-73
2023/02/23 07:06:47;;;;;;;53.42;30.13;;;7.00;99.90;;;;;;5003680;28;20416;-75
2023/02/23 07:09:14;;;;;;;49.47;26.55;;;7.10;99.90;;;;;;5002501;28;20050;-75
2023/02/23 07:11:40;;;;;;;53.70;27.75;;;7.10;99.90;;;;;;5004351;28;20077;-75
2023/02/23 07:14:07;;;;;;;42.50;24.75;;;6.90;99.90;;;;;;5033337;28;20454;-74
2023/02/23 07:16:33;;;;;;;37.13;22.92;;;6.90;99.90;;;;;;5022819;28;20052;-74
2023/02/23 07:18:58;;;;;;;39.58;21.85;;;6.90;99.90;;;;;;4996553;28;20390;-74
2023/02/23 07:21:24;;;;;;;52.03;27.38;;;6.90;99.90;;;;;;4970228;28;20160;-75
2023/02/23 07:23:50;;;;;;;53.00;27.58;;;7.00;99.90;;;;;;5018348;28;20042;-75
2023/02/23 07:26:17;;;;;;;45.40;25.27;;;7.00;99.90;;;;;;4997786;28;20163;-74
2023/02/23 07:28:43;;;;;;;48.08;25.83;;;7.10;99.90;;;;;;5028874;28;20081;-74
2023/02/23 07:31:09;;;;;;;42.97;24.17;;;7.10;99.90;;;;;;5002099;28;20050;-75
2023/02/23 07:33:34;;;;;;;47.97;27.60;;;7.10;99.90;;;;;;5017004;28;20373;-73
2023/02/23 07:36:00;;;;;;;50.63;30.10;;;7.10;99.90;;;;;;5020960;28;20103;-73
2023/02/23 07:38:26;;;;;;;50.83;28.75;;;7.20;99.90;;;;;;4973533;28;20048;-73
2023/02/23 07:40:52;;;;;;;46.50;26.73;;;7.20;99.90;;;;;;4994690;28;20489;-73
2023/02/23 07:43:20;;;;;;;50.63;29.45;;;7.10;99.90;;;;;;5001656;28;20142;-74
2023/02/23 07:45:45;;;;;;;57.15;30.60;;;7.10;99.90;;;;;;5011434;28;20046;-73
2023/02/23 07:48:11;;;;;;;50.40;29.63;;;7.10;99.90;;;;;;5027160;28;20096;-73
2023/02/23 07:50:39;;;;;;;62.95;32.67;;;7.00;99.90;;;;;;5000143;28;20093;-73
2023/02/23 07:53:04;;;;;;;51.88;31.17;;;7.00;99.90;;;;;;5005242;28;20162;-73
2023/02/23 07:55:30;;;;;;;51.70;29.60;;;7.00;99.90;;;;;;5021587;28;20419;-73
2023/02/23 07:57:56;;;;;;;61.92;31.45;;;7.10;99.90;;;;;;5028186;28;20034;-73
2023/02/23 08:00:23;;;;;;;56.45;30.45;;;7.10;99.90;;;;;;5024810;28;20052;-73
2023/02/23 08:02:51;;;;;;;61.50;32.45;;;7.20;99.90;;;;;;5038506;28;20155;-73
2023/02/23 08:05:18;;;;;;;64.88;34.28;;;7.30;99.90;;;;;;5015180;28;20072;-74
2023/02/23 08:07:44;;;;;;;57.92;33.45;;;7.30;99.90;;;;;;5028517;28;20052;-74
2023/02/23 08:10:12;;;;;;;57.50;29.63;;;7.20;99.90;;;;;;5001596;28;20465;-74
2023/02/23 08:12:38;;;;;;;52.35;30.27;;;7.30;99.90;;;;;;5019011;28;20050;-74
2023/02/23 08:15:07;;;;;;;57.80;31.90;;;7.20;99.90;;;;;;5005708;28;20450;-74
2023/02/23 08:17:33;;;;;;;51.03;29.83;;;7.20;99.90;;;;;;5017408;28;20110;-73
2023/02/23 08:19:59;;;;;;;57.28;32.80;;;7.40;99.90;;;;;;5021957;28;20490;-74
2023/02/23 08:22:25;;;;;;;63.13;35.25;;;7.40;99.90;;;;;;5035967;28;20060;-74
2023/02/23 08:24:51;;;;;;;56.03;34.42;;;7.40;99.90;;;;;;5024615;28;20045;-75
2023/02/23 08:27:17;;;;;;;65.32;35.83;;;7.50;99.90;;;;;;5027075;28;20488;-74
2023/02/23 08:29:43;;;;;;;61.08;34.95;;;7.50;99.90;;;;;;5016301;28;20359;-74
2023/02/23 08:32:09;;;;;;;65.55;36.58;;;7.50;99.90;;;;;;4989984;28;20057;-74
2023/02/23 08:34:42;;;;;;;61.45;35.15;;;7.70;99.90;;;;;;5001979;28;20068;-74
2023/02/23 08:37:08;;;;;;;59.28;34.63;;;7.70;99.90;;;;;;5020909;28;20118;-75
2023/02/23 08:39:33;;;;;;;74.55;42.03;;;7.80;99.90;;;;;;5037551;28;20377;-75
2023/02/23 08:41:59;;;;;;;61.63;36.00;;;7.80;99.90;;;;;;5031646;28;20476;-73
2023/02/23 08:44:25;;;;;;;59.30;37.22;;;7.90;99.90;;;;;;5018385;28;20436;-73
2023/02/23 08:46:52;;;;;;;66.05;39.22;;;8.00;99.90;;;;;;5008258;28;20049;-73
2023/02/23 08:49:18;;;;;;;66.63;38.25;;;8.10;99.90;;;;;;5035532;28;20073;-73
2023/02/23 08:51:45;;;;;;;67.22;37.50;;;8.10;99.90;;;;;;4977024;28;20500;-73
2023/02/23 08:54:13;;;;;;;61.63;37.90;;;8.20;99.90;;;;;;5030382;28;20050;-74
2023/02/23 08:56:40;;;;;;;56.72;35.58;;;8.30;99.90;;;;;;5032021;28;20902;-73
2023/02/23 08:59:05;;;;;;;64.60;36.92;;;8.30;99.90;;;;;;4995161;28;20048;-73
2023/02/23 09:01:31;;;;;;;53.92;33.70;;;8.40;99.90;;;;;;5005973;28;20037;-73
2023/02/23 09:03:57;;;;;;;59.75;33.90;;;8.40;99.90;;;;;;5041288;28;20075;-73
2023/02/23 09:06:26;;;;;;;50.58;31.92;;;8.40;99.90;;;;;;5014234;28;20045;-73
2023/02/23 09:08:53;;;;;;;58.97;33.03;;;8.40;99.90;;;;;;5021174;28;20057;-73
2023/02/23 09:11:19;;;;;;;60.40;35.20;;;8.40;99.90;;;;;;5007559;28;20042;-73
2023/02/23 09:13:45;;;;;;;56.80;32.65;;;8.30;99.90;;;;;;5006394;28;20041;-74
2023/02/23 09:16:10;;;;;;;58.95;33.47;;;8.30;99.90;;;;;;5017107;28;20063;-74
2023/02/23 09:18:36;;;;;;;68.90;37.25;;;8.30;99.90;;;;;;4976639;28;20037;-74
2023/02/23 09:21:07;;;;;;;58.45;35.38;;;8.40;99.90;;;;;;5019098;28;20038;-74
2023/02/23 09:23:36;;;;;;;64.55;38.38;;;8.30;99.90;;;;;;5030556;28;20143;-74
2023/02/23 09:26:05;;;;;;;71.93;41.15;;;8.30;99.90;;;;;;5001599;28;20053;-74
2023/02/23 09:28:32;;;;;;;65.43;37.40;;;8.40;99.90;;;;;;5020521;28;20045;-74
2023/02/23 09:31:05;;;;;;;70.90;39.03;;;8.50;99.90;;;;;;5001953;28;20041;-74
2023/02/23 09:33:30;;;;;;;71.38;41.33;;;8.50;99.90;;;;;;5003900;28;20065;-74
2023/02/23 09:35:56;;;;;;;67.22;40.78;;;8.50;99.90;;;;;;4995138;28;20053;-74
2023/02/23 09:38:23;;;;;;;80.25;45.33;;;8.60;99.90;;;;;;5024364;28;20068;-74
2023/02/23 09:40:52;;;;;;;74.88;44.45;;;8.60;99.90;;;;;;5001182;28;20057;-75
2023/02/23 09:43:34;;;;;;;88.40;50.20;;;8.70;99.90;;;;;;5014175;28;20056;-73
2023/02/23 09:46:12;;;;;;;93.32;55.05;;;8.80;99.90;;;;;;5038193;28;20057;-74
2023/02/23 09:48:38;;;;;;;91.80;52.95;;;8.80;99.90;;;;;;5019095;28;20426;-74
2023/02/23 09:51:05;;;;;;;92.72;52.97;;;8.80;99.90;;;;;;5000645;28;20081;-74
2023/02/23 09:53:30;;;;;;;94.28;53.33;;;8.80;99.90;;;;;;4979093;28;20061;-73
2023/02/23 09:55:57;;;;;;;84.15;49.83;;;8.80;99.90;;;;;;5021344;28;20386;-73
2023/02/23 09:58:24;;;;;;;87.68;51.17;;;8.80;99.90;;;;;;5017120;28;20433;-73
2023/02/23 10:01:38;;;;;;;90.80;51.58;;;8.80;99.90;;;;;;5020151;28;20041;-73
2023/02/23 10:04:11;;;;;;;88.20;52.25;;;8.90;99.90;;;;;;5014785;28;20587;-73
2023/02/23 10:06:36;;;;;;;86.80;50.38;;;8.80;99.90;;;;;;5020961;28;20049;-73
2023/02/23 10:09:18;;;;;;;85.68;53.03;;;8.80;99.90;;;;;;5026896;28;20041;-73
2023/02/23 10:12:00;;;;;;;83.70;49.70;;;8.80;99.90;;;;;;5030577;28;20045;-73
2023/02/23 10:15:05;;;;;;;91.57;50.33;;;8.90;99.90;;;;;;5017793;28;20382;-73
2023/02/23 10:17:43;;;;;;;89.30;51.85;;;8.90;99.90;;;;;;5040920;28;20088;-73
2023/02/23 10:20:24;;;;;;;98.63;56.13;;;8.90;99.90;;;;;;5023468;28;20374;-73
2023/02/23 10:22:50;;;;;;;92.10;53.47;;;8.80;99.90;;;;;;5033660;28;20354;-73
2023/02/23 10:25:26;;;;;;;98.15;53.90;;;8.90;99.90;;;;;;5002089;28;20049;-73
2023/02/23 10:27:52;;;;;;;105.63;56.85;;;8.90;99.90;;;;;;5020985;28;20053;-74
2023/02/23 10:30:19;;;;;;;98.28;56.22;;;8.80;99.90;;;;;;5023775;28;20053;-74
2023/02/23 10:32:54;;;;;;;103.85;57.08;;;8.90;99.90;;;;;;5002671;28;20049;-73
2023/02/23 10:35:20;;;;;;;104.85;57.55;;;8.80;99.90;;;;;;5006611;28;20079;-73
2023/02/23 10:37:47;;;;;;;102.70;56.78;;;8.90;99.90;;;;;;5010491;28;20131;-73
2023/02/23 10:40:21;;;;;;;101.80;54.85;;;8.80;99.90;;;;;;5013089;28;20046;-73
2023/02/23 10:42:47;;;;;;;106.32;57.22;;;8.90;99.90;;;;;;5029560;28;20045;-73
2023/02/23 10:45:21;;;;;;;98.13;55.10;;;8.90;99.90;;;;;;5003049;28;20394;-73
2023/02/23 10:48:07;;;;;;;101.95;55.22;;;8.90;99.90;;;;;;5006953;28;20053;-74
2023/02/23 10:50:35;;;;;;;106.07;56.67;;;8.90;99.90;;;;;;5017269;28;20092;-73
2023/02/23 10:53:15;;;;;;;97.20;55.60;;;8.90;99.90;;;;;;5024757;28;20513;-74
2023/02/23 10:55:42;;;;;;;90.60;52.60;;;8.90;99.90;;;;;;5029777;28;20068;-74
2023/02/23 10:58:16;;;;;;;99.97;53.35;;;8.90;99.90;;;;;;4992416;28;20101;-73
2023/02/23 11:00:59;;;;;;;97.95;54.42;;;8.90;99.90;;;;;;5000841;28;20091;-74
2023/02/23 11:03:46;;;;;;;97.15;55.45;;;8.90;99.90;;;;;;5028584;28;20053;-73
2023/02/23 11:06:38;;;;;;;89.38;51.53;;;8.90;99.90;;;;;;5016154;28;20049;-73
2023/02/23 11:09:31;;;;;;;88.70;52.13;;;8.90;99.90;;;;;;5000460;28;20129;-73
2023/02/23 11:12:15;;;;;;;97.18;55.92;;;8.90;99.90;;;;;;5015452;28;20359;-74
2023/02/23 11:14:41;;;;;;;98.43;55.78;;;8.90;99.90;;;;;;5002015;28;20056;-74
2023/02/23 11:17:21;;;;;;;92.82;51.47;;;8.90;99.90;;;;;;5000768;28;20049;-74
2023/02/23 11:19:46;;;;;;;84.50;49.92;;;8.90;99.90;;;;;;4998464;28;20428;-74
2023/02/23 11:22:24;;;;;;;86.18;50.45;;;8.90;99.90;;;;;;5018099;28;20571;-74
2023/02/23 11:24:51;;;;;;;95.22;53.47;;;9.00;99.90;;;;;;5026477;28;20088;-74
2023/02/23 11:27:24;;;;;;;92.80;51.22;;;9.00;99.90;;;;;;5012967;28;20049;-75
2023/02/23 11:29:52;;;;;;;93.20;53.45;;;9.00;99.90;;;;;;5028612;28;20041;-74
2023/02/23 11:32:30;;;;;;;97.35;54.03;;;9.00;99.90;;;;;;5021340;28;20209;-74
2023/02/23 11:35:20;;;;;;;100.43;53.55;;;8.90;99.90;;;;;;5009076;28;20144;-74
2023/02/23 11:37:47;;;;;;;97.15;51.20;;;9.00;99.90;;;;;;5019082;28;20041;-74
2023/02/23 11:40:20;;;;;;;94.20;51.08;;;9.00;99.90;;;;;;5020086;28;20053;-74
2023/02/23 11:43:05;;;;;;;99.72;54.97;;;8.90;99.90;;;;;;5008881;28;20042;-74
2023/02/23 11:45:32;;;;;;;94.60;52.35;;;8.90;99.90;;;;;;5020264;28;20122;-74
2023/02/23 11:47:59;;;;;;;108.35;54.42;;;8.90;99.90;;;;;;5000276;28;20050;-75
2023/02/23 11:50:29;;;;;;;101.65;54.28;;;8.90;99.90;;;;;;5023301;28;20056;-73
2023/02/23 11:53:05;;;;;;;94.40;50.70;;;8.90;99.90;;;;;;5004540;28;20064;-74
2023/02/23 11:55:32;;;;;;;97.15;52.15;;;9.00;99.90;;;;;;5027343;28;20238;-73
2023/02/23 11:58:24;;;;;;;102.97;53.80;;;9.00;99.90;;;;;;5011678;28;20358;-73
2023/02/23 12:01:09;;;;;;;98.40;54.28;;;9.00;99.90;;;;;;5021260;28;20136;-73
2023/02/23 12:03:35;;;;;;;103.65;54.78;;;9.00;99.90;;;;;;5023519;28;20545;-73
2023/02/23 12:06:01;;;;;;;94.93;53.08;;;8.90;99.90;;;;;;5038383;28;20041;-73
2023/02/23 12:08:44;;;;;;;99.43;53.40;;;8.90;99.90;;;;;;5008327;28;20466;-74
2023/02/23 12:11:19;;;;;;;106.00;54.42;;;9.00;99.90;;;;;;5006267;28;20049;-74
2023/02/23 12:13:55;;;;;;;94.95;51.67;;;9.00;99.90;;;;;;5022529;28;20041;-74
2023/02/23 12:16:27;;;;;;;90.95;51.50;;;9.00;99.90;;;;;;5027165;28;20116;-74
2023/02/23 12:19:32;;;;;;;91.03;49.60;;;8.90;99.90;;;;;;4997118;28;20119;-74
2023/02/23 12:22:05;;;;;;;90.22;49.25;;;9.00;99.90;;;;;;4983120;28;20370;-73
2023/02/23 12:24:52;;;;;;;91.75;49.95;;;9.00;99.90;;;;;;5004800;28;20049;-74
2023/02/23 12:27:40;;;;;;;82.22;46.85;;;8.90;99.90;;;;;;5012746;28;20315;-73
2023/02/23 12:30:24;;;;;;;83.82;45.00;;;8.90;99.90;;;;;;5006211;28;20042;-73
2023/02/23 12:32:59;;;;;;;86.78;47.58;;;8.90;99.90;;;;;;5020241;28;20474;-73
2023/02/23 12:35:52;;;;;;;87.93;47.80;;;8.90;99.90;;;;;;5014959;28;20069;-73
2023/02/23 12:38:26;;;;;;;95.22;51.78;;;9.00;99.90;;;;;;5019608;28;20046;-73
2023/02/23 12:40:58;;;;;;;83.40;47.20;;;9.00;99.90;;;;;;5021076;28;20057;-73
2023/02/23 12:43:38;;;;;;;92.60;49.33;;;9.10;99.90;;;;;;5027287;28;20470;-73
2023/02/23 12:46:12;;;;;;;85.47;48.10;;;9.00;99.90;;;;;;5015629;28;20072;-73
2023/02/23 12:49:00;;;;;;;83.82;48.25;;;9.10;99.90;;;;;;5019102;28;20112;-73
2023/02/23 12:51:37;;;;;;;86.43;49.83;;;9.10;99.90;;;;;;5022561;28;20223;-73
2023/02/23 12:54:04;;;;;;;81.28;47.97;;;9.10;99.90;;;;;;5028624;28;20060;-73
2023/02/23 12:56:34;;;;;;;80.20;45.90;;;9.10;99.90;;;;;;5015656;28;20179;-73
2023/02/23 12:59:30;;;;;;;83.30;49.25;;;9.00;99.90;;;;;;5019401;28;20037;-73
2023/02/23 13:02:02;;;;;;;80.30;45.95;;;9.00;99.90;;;;;;5021359;28;20362;-73
2023/02/23 13:04:46;;;;;;;76.78;45.10;;;9.00;99.90;;;;;;5038205;28;20128;-73
2023/02/23 13:07:33;;;;;;;84.13;47.17;;;9.10;99.90;;;;;;5020919;28;20138;-73
2023/02/23 13:10:05;;;;;;;71.82;43.10;;;9.10;99.90;;;;;;5028957;28;20048;-73
2023/02/23 13:12:40;;;;;;;66.57;41.17;;;9.10;99.90;;;;;;5022020;28;20049;-73
2023/02/23 13:15:21;;;;;;;68.65;41.65;;;9.10;99.90;;;;;;5000326;28;20048;-73
2023/02/23 13:17:57;;;;;;;65.82;39.90;;;9.10;99.90;;;;;;5021285;28;20049;-73
2023/02/23 13:20:42;;;;;;;76.07;46.08;;;9.20;99.90;;;;;;5011292;28;20107;-73
2023/02/23 13:23:39;;;;;;;61.95;36.58;;;9.10;99.90;;;;;;5001879;28;20085;-73
2023/02/23 13:26:09;;;;;;;61.40;39.03;;;9.10;99.90;;;;;;5015561;28;20068;-73
2023/02/23 13:28:51;;;;;;;57.70;36.13;;;9.20;99.90;;;;;;5017140;28;20038;-73
2023/02/23 13:31:30;;;;;;;55.40;35.35;;;9.30;99.90;;;;;;5002904;28;20061;-73
2023/02/23 13:33:56;;;;;;;54.20;33.63;;;9.30;99.90;;;;;;5008193;28;20466;-73
2023/02/23 13:36:22;;;;;;;54.90;36.88;;;9.20;99.90;;;;;;4994783;28;20129;-73
2023/02/23 13:39:09;;;;;;;56.38;37.03;;;9.20;99.90;;;;;;5005167;28;20149;-73
2023/02/23 13:41:38;;;;;;;52.67;33.17;;;9.40;99.90;;;;;;5022816;28;20045;-73
2023/02/23 13:44:36;;;;;;;53.40;33.50;;;9.30;99.90;;;;;;5018722;28;20041;-73
2023/02/23 13:47:13;;;;;;;49.20;32.65;;;9.30;99.90;;;;;;5019899;28;20046;-73
2023/02/23 13:49:55;;;;;;;51.35;32.95;;;9.20;99.90;;;;;;5017508;28;20479;-73
2023/02/23 13:52:32;;;;;;;48.10;33.53;;;9.10;99.90;;;;;;4987316;28;20053;-73
2023/02/23 13:55:02;;;;;;;49.47;34.00;;;9.10;99.90;;;;;;5017125;28;20068;-73
2023/02/23 13:57:31;;;;;;;52.38;33.85;;;9.00;99.90;;;;;;5030253;28;20060;-73
2023/02/23 13:59:57;;;;;;;59.80;38.13;;;9.10;99.90;;;;;;5020996;28;20041;-73
2023/02/23 14:02:33;;;;;;;55.33;36.08;;;9.00;99.90;;;;;;5029825;28;20041;-73
2023/02/23 14:05:16;;;;;;;58.35;36.97;;;9.10;99.90;;;;;;5017987;28;20057;-73
2023/02/23 14:07:44;;;;;;;63.05;38.45;;;9.10;99.90;;;;;;5018507;28;20138;-73
2023/02/23 14:10:20;;;;;;;60.35;38.55;;;9.10;99.90;;;;;;5011339;28;20046;-73
2023/02/23 14:13:13;;;;;;;69.82;43.35;;;9.10;99.90;;;;;;4991740;28;20046;-73
2023/02/23 14:15:40;;;;;;;71.45;43.95;;;9.10;99.90;;;;;;5018355;28;20056;-73